Time;durP1;ratioP1;P1;durP2;ratioP2;P2;SDS_P1;SDS_P2;PMS_P1;PMS_P2;Temp;Humidity;BMP_temperature;BMP_pressure;BME280_temperature;BME280_humidity;BME280_pressure;Samples;Min_cycle;Max_cycle;Signal;HPM_P1;HPM_P2
2022/03/23 00:00:34;;;;;;;42.88;24.17;;;3.80;99.90;;;;;;4897034;29;20064;-81
2022/03/23 00:03:22;;;;;;;39.28;22.30;;;3.80;99.90;;;;;;4907457;29;20044;-81
2022/03/23 00:06:13;;;;;;;39.08;23.10;;;3.80;99.90;;;;;;4909366;29;20127;-82
2022/03/23 00:09:00;;;;;;;45.15;24.58;;;3.90;99.90;;;;;;4921211;29;20448;-82
2022/03/23 00:11:48;;;;;;;46.22;25.23;;;3.90;99.90;;;;;;4920595;29;20044;-81
2022/03/23 00:14:37;;;;;;;46.35;25.35;;;4.00;99.90;;;;;;4921156;29;20048;-81
2022/03/23 00:17:25;;;;;;;46.10;23.48;;;3.90;99.90;;;;;;4900965;29;20390;-80
2022/03/23 00:20:12;;;;;;;41.80;23.95;;;3.80;99.90;;;;;;4910332;29;20055;-80
2022/03/23 00:23:00;;;;;;;44.13;24.85;;;3.70;99.90;;;;;;4922192;29;20056;-80
2022/03/23 00:25:49;;;;;;;50.35;25.30;;;3.50;99.90;;;;;;4921730;29;20048;-81
2022/03/23 00:28:37;;;;;;;40.75;24.05;;;3.40;99.90;;;;;;4931487;29;20104;-81
2022/03/23 00:31:25;;;;;;;46.28;25.38;;;3.20;99.90;;;;;;4918521;29;20056;-81
2022/03/23 00:34:12;;;;;;;45.40;26.52;;;3.10;99.90;;;;;;4929993;29;20164;-82
2022/03/23 00:37:00;;;;;;;44.42;25.42;;;3.00;99.90;;;;;;4936004;28;20389;-82
2022/03/23 00:39:48;;;;;;;44.20;23.27;;;2.90;99.90;;;;;;4934495;29;20083;-81
2022/03/23 00:42:38;;;;;;;40.42;23.60;;;2.90;99.90;;;;;;4913140;29;20052;-81
2022/03/23 00:45:26;;;;;;;45.08;25.88;;;2.80;99.90;;;;;;4911078;29;20048;-81
2022/03/23 00:48:13;;;;;;;41.05;23.67;;;2.80;99.90;;;;;;4921029;28;20044;-80
2022/03/23 00:51:01;;;;;;;40.55;23.20;;;2.80;99.90;;;;;;4916097;29;20053;-81
2022/03/23 00:53:49;;;;;;;43.78;25.10;;;2.70;99.90;;;;;;4908252;29;20115;-81
2022/03/23 00:56:38;;;;;;;45.30;26.13;;;2.70;99.90;;;;;;4924613;29;20055;-81
2022/03/23 00:59:27;;;;;;;41.50;25.85;;;2.70;99.90;;;;;;4900659;29;20071;-80
2022/03/23 01:02:16;;;;;;;52.35;27.15;;;2.70;99.90;;;;;;4910466;29;20463;-81
2022/03/23 01:05:05;;;;;;;45.38;25.02;;;2.60;99.90;;;;;;4919067;29;20127;-81
2022/03/23 01:07:56;;;;;;;45.70;26.50;;;2.50;99.90;;;;;;4914710;29;20466;-81
2022/03/23 01:10:44;;;;;;;46.60;25.20;;;2.40;99.90;;;;;;4907300;28;20044;-81
2022/03/23 01:13:39;;;;;;;43.53;25.63;;;2.40;99.90;;;;;;4900953;29;20188;-80
2022/03/23 01:16:28;;;;;;;44.10;26.15;;;2.30;99.90;;;;;;4902611;29;20143;-81
2022/03/23 01:19:22;;;;;;;46.47;23.95;;;2.20;99.90;;;;;;4921075;29;20072;-81
2022/03/23 01:22:13;;;;;;;44.58;23.92;;;2.30;99.90;;;;;;4902289;29;20119;-80
2022/03/23 01:25:03;;;;;;;51.58;24.35;;;2.20;99.90;;;;;;4907950;29;20067;-80
2022/03/23 01:27:52;;;;;;;46.80;23.98;;;2.30;99.90;;;;;;4916633;29;20173;-79
2022/03/23 01:30:39;;;;;;;46.78;24.40;;;2.20;99.90;;;;;;4921756;28;20059;-80
2022/03/23 01:33:28;;;;;;;56.67;26.48;;;2.20;99.90;;;;;;4916802;29;20051;-81
2022/03/23 01:36:16;;;;;;;42.55;24.58;;;2.30;99.90;;;;;;4919211;29;20052;-81
2022/03/23 01:39:05;;;;;;;37.97;22.83;;;2.40;99.90;;;;;;4907150;29;20437;-80
2022/03/23 01:41:53;;;;;;;42.35;23.05;;;2.50;99.90;;;;;;4897645;29;20048;-81
2022/03/23 01:44:45;;;;;;;38.28;21.65;;;2.60;99.90;;;;;;4923150;28;20052;-82
2022/03/23 01:47:35;;;;;;;40.55;22.42;;;2.50;99.90;;;;;;4921392;28;20051;-82
2022/03/23 01:50:27;;;;;;;43.17;23.10;;;2.50;99.90;;;;;;4914539;29;20055;-81
2022/03/23 01:53:17;;;;;;;37.78;22.27;;;2.60;99.90;;;;;;4921752;29;20048;-82
2022/03/23 01:56:05;;;;;;;38.53;21.73;;;2.60;99.90;;;;;;4918771;28;20143;-81
2022/03/23 01:58:54;;;;;;;47.92;24.08;;;2.60;99.90;;;;;;4921663;29;20055;-80
2022/03/23 02:01:45;;;;;;;42.72;23.65;;;2.60;99.90;;;;;;4922252;29;20745;-82
2022/03/23 02:04:34;;;;;;;42.00;22.77;;;2.70;99.90;;;;;;4902899;29;20056;-82
2022/03/23 02:07:24;;;;;;;38.88;21.42;;;2.90;99.90;;;;;;4896809;29;20056;-80
2022/03/23 02:10:11;;;;;;;43.22;22.50;;;2.90;99.90;;;;;;4906468;29;20051;-81
2022/03/23 02:12:58;;;;;;;41.50;22.00;;;2.90;99.90;;;;;;4901402;29;20064;-81
2022/03/23 02:15:52;;;;;;;43.45;24.15;;;2.80;99.90;;;;;;4909163;29;20058;-81
2022/03/23 02:18:39;;;;;;;49.22;24.17;;;2.70;99.90;;;;;;4919546;29;20342;-82
2022/03/23 02:21:28;;;;;;;45.45;23.42;;;2.70;99.90;;;;;;4911747;29;20048;-81
2022/03/23 02:24:16;;;;;;;37.92;23.38;;;2.80;99.90;;;;;;4916906;29;20135;-80
2022/03/23 02:27:03;;;;;;;39.50;22.20;;;3.00;99.90;;;;;;4895510;29;20063;-80
2022/03/23 02:29:53;;;;;;;38.78;23.17;;;3.10;99.90;;;;;;4907949;29;20055;-79
2022/03/23 02:32:40;;;;;;;38.22;22.42;;;3.20;99.90;;;;;;4912398;29;20673;-80
2022/03/23 02:35:28;;;;;;;36.55;21.20;;;3.10;99.90;;;;;;4910547;29;20044;-79
2022/03/23 02:38:16;;;;;;;41.30;22.20;;;3.00;99.90;;;;;;4917571;29;20059;-82
2022/03/23 02:41:03;;;;;;;37.03;21.10;;;2.90;99.90;;;;;;4904243;29;20052;-80
2022/03/23 02:43:51;;;;;;;41.92;22.02;;;2.90;99.90;;;;;;4907096;29;20060;-81
2022/03/23 02:46:43;;;;;;;40.97;23.40;;;2.80;99.90;;;;;;4919897;29;20166;-81
2022/03/23 02:49:30;;;;;;;42.30;23.60;;;2.80;99.90;;;;;;4913148;28;20060;-80
2022/03/23 02:52:23;;;;;;;38.03;22.92;;;2.70;99.90;;;;;;4898533;29;20052;-81
2022/03/23 03:01:56;;;;;;;44.13;21.75;;;2.80;99.90;;;;;;4888936;29;20052;-80
2022/03/23 03:04:44;;;;;;;36.30;22.02;;;2.70;99.90;;;;;;4919556;29;20048;-82
2022/03/23 03:10:37;;;;;;;37.17;22.52;;;2.20;99.90;;;;;;4910257;29;20157;-82
2022/03/23 03:13:24;;;;;;;38.60;23.00;;;2.10;99.90;;;;;;4916309;29;20529;-81
2022/03/23 03:16:11;;;;;;;39.47;23.27;;;2.00;99.90;;;;;;4894247;29;20422;-82
2022/03/23 03:18:59;;;;;;;40.15;24.10;;;1.90;99.90;;;;;;4899589;29;20088;-83
2022/03/23 03:21:46;;;;;;;45.15;24.65;;;1.70;99.90;;;;;;4903010;29;20064;-81
2022/03/23 03:24:33;;;;;;;44.28;23.75;;;1.60;99.90;;;;;;4916055;29;20147;-81
2022/03/23 03:27:21;;;;;;;39.92;23.60;;;1.70;99.90;;;;;;4915784;29;20063;-81
2022/03/23 03:30:13;;;;;;;48.72;22.67;;;1.70;99.90;;;;;;4913288;29;20044;-80
2022/03/23 03:37:06;;;;;;;40.40;23.33;;;1.50;99.90;;;;;;4919537;29;20042;-82
2022/03/23 03:39:53;;;;;;;40.30;22.80;;;1.30;99.90;;;;;;4922078;29;20103;-80
2022/03/23 03:42:40;;;;;;;40.78;22.90;;;1.30;99.90;;;;;;4912226;29;20048;-83
2022/03/23 03:45:29;;;;;;;43.45;24.38;;;1.20;99.90;;;;;;4907096;29;20062;-82
2022/03/23 03:48:17;;;;;;;44.53;24.00;;;1.20;99.90;;;;;;4913737;29;20111;-82
2022/03/23 03:51:06;;;;;;;44.10;25.77;;;1.10;99.90;;;;;;4910167;29;20082;-80
2022/03/23 03:53:56;;;;;;;46.75;26.45;;;1.00;99.90;;;;;;4924568;29;20151;-80
2022/03/23 03:56:43;;;;;;;48.78;26.70;;;1.00;99.90;;;;;;4922227;29;20338;-80
2022/03/23 03:59:30;;;;;;;51.75;26.77;;;0.90;99.90;;;;;;4900422;29;20063;-81
2022/03/23 04:02:19;;;;;;;52.15;28.00;;;0.90;99.90;;;;;;4919606;29;20120;-81
2022/03/23 04:05:10;;;;;;;50.13;26.38;;;0.80;99.90;;;;;;4919434;29;20135;-81
2022/03/23 04:08:01;;;;;;;44.70;25.13;;;0.80;99.90;;;;;;4901876;29;20076;-81
2022/03/23 04:10:48;;;;;;;42.13;25.73;;;0.90;99.90;;;;;;4918574;29;20174;-81
2022/03/23 04:13:35;;;;;;;46.75;26.70;;;0.90;99.90;;;;;;4899369;29;20056;-82
2022/03/23 04:16:23;;;;;;;52.05;27.65;;;0.80;99.90;;;;;;4920620;28;20103;-80
2022/03/23 04:19:10;;;;;;;50.08;26.90;;;0.90;99.90;;;;;;4905113;29;20438;-82
2022/03/23 04:21:57;;;;;;;46.67;26.33;;;1.10;99.90;;;;;;4904795;29;20079;-81
2022/03/23 04:24:45;;;;;;;46.08;26.60;;;1.10;99.90;;;;;;4918448;28;20114;-81
2022/03/23 04:27:35;;;;;;;61.38;26.92;;;1.20;99.90;;;;;;4917375;29;20068;-80
2022/03/23 04:30:27;;;;;;;43.92;25.35;;;1.20;99.90;;;;;;4920028;29;20182;-81
2022/03/23 04:33:15;;;;;;;44.15;25.60;;;1.20;99.90;;;;;;4905909;29;20056;-81
2022/03/23 04:36:03;;;;;;;48.88;26.55;;;1.10;99.90;;;;;;4920899;28;20342;-81
2022/03/23 04:38:50;;;;;;;46.33;26.23;;;1.00;99.90;;;;;;4923904;29;20083;-83
2022/03/23 04:41:40;;;;;;;52.85;27.92;;;0.90;99.90;;;;;;4931334;29;20052;-80
2022/03/23 04:44:27;;;;;;;44.63;27.35;;;1.00;99.90;;;;;;4930922;28;20127;-82
2022/03/23 04:47:15;;;;;;;45.78;27.25;;;1.20;99.90;;;;;;4923131;29;20040;-81
2022/03/23 04:50:03;;;;;;;57.58;29.67;;;1.30;99.90;;;;;;4919565;29;20048;-80
2022/03/23 04:52:52;;;;;;;49.17;28.40;;;1.40;99.90;;;;;;4938456;28;20052;-80
2022/03/23 04:55:39;;;;;;;44.47;25.98;;;1.50;99.90;;;;;;4934955;28;20044;-79
2022/03/23 04:58:27;;;;;;;49.83;26.23;;;1.40;99.90;;;;;;4934910;28;20040;-85
2022/03/23 05:01:15;;;;;;;47.08;27.25;;;1.20;99.90;;;;;;4925215;28;20056;-81
2022/03/23 05:04:02;;;;;;;47.97;25.88;;;1.00;99.90;;;;;;4932473;29;20063;-81
2022/03/23 05:06:49;;;;;;;48.17;26.50;;;0.80;99.90;;;;;;4932009;29;20048;-81
2022/03/23 05:09:39;;;;;;;47.17;26.90;;;0.70;99.90;;;;;;4928405;29;20047;-81
2022/03/23 05:12:31;;;;;;;50.58;27.30;;;0.70;99.90;;;;;;4923484;29;20084;-80
2022/03/23 05:15:21;;;;;;;42.67;21.67;;;0.50;99.90;;;;;;4914861;29;20040;-79
2022/03/23 05:18:10;;;;;;;46.47;26.45;;;0.50;99.90;;;;;;4920105;29;20051;-80
2022/03/23 05:20:57;;;;;;;52.50;27.55;;;0.40;99.90;;;;;;4916240;29;20056;-80
2022/03/23 05:23:44;;;;;;;49.65;28.23;;;0.30;99.90;;;;;;4906074;29;20086;-80
2022/03/23 05:26:33;;;;;;;59.13;30.15;;;0.30;99.90;;;;;;4913355;29;20060;-80
2022/03/23 05:29:22;;;;;;;52.75;28.73;;;0.40;99.90;;;;;;4915069;29;20413;-81
2022/03/23 05:32:16;;;;;;;50.63;28.55;;;0.40;99.90;;;;;;4916141;28;20048;-82
2022/03/23 05:40:05;;;;;;;49.42;27.98;;;0.50;99.90;;;;;;4912196;29;20742;-83
2022/03/23 05:42:55;;;;;;;52.30;29.50;;;0.80;99.90;;;;;;4900026;29;20064;-82
2022/03/23 05:45:47;;;;;;;51.75;29.45;;;0.90;99.90;;;;;;4904506;29;20070;-81
2022/03/23 05:56:47;;;;;;;46.00;25.60;;;1.50;99.90;;;;;;4898881;29;20140;-83
2022/03/23 05:59:41;;;;;;;47.10;26.42;;;1.50;99.90;;;;;;4914461;29;20097;-88
2022/03/23 06:06:59;;;;;;;48.13;27.55;;;1.50;99.90;;;;;;4919001;29;20036;-88
2022/03/23 06:10:19;;;;;;;50.85;27.27;;;1.50;99.90;;;;;;4930097;29;20059;-87
2022/03/23 06:13:31;;;;;;;;;;;;;;;;;;;;;
2022/03/23 06:16:28;;;;;;;48.20;27.17;;;1.70;99.90;;;;;;4921790;29;20050;-89
2022/03/23 06:19:20;;;;;;;52.72;26.98;;;1.90;99.90;;;;;;4908409;29;20051;-85
2022/03/23 06:22:21;;;;;;;48.92;25.33;;;2.00;99.90;;;;;;4921456;29;20063;-84
2022/03/23 06:25:12;;;;;;;47.53;25.52;;;2.20;99.90;;;;;;4909763;29;20056;-85
2022/03/23 06:28:02;;;;;;;42.63;25.38;;;2.40;99.90;;;;;;4924046;29;20056;-85
2022/03/23 06:30:53;;;;;;;51.22;24.65;;;2.70;99.90;;;;;;4924762;29;20048;-85
2022/03/23 06:33:42;;;;;;;53.35;25.40;;;2.90;99.90;;;;;;4922994;29;20107;-85
2022/03/23 06:36:29;;;;;;;42.45;25.20;;;3.20;99.90;;;;;;4917913;29;20052;-85
2022/03/23 06:43:16;;;;;;;42.00;23.58;;;3.80;99.90;;;;;;4925848;29;20059;-83
2022/03/23 06:46:04;;;;;;;42.97;24.85;;;4.00;1.00;;;;;;4912932;29;20133;-85
2022/03/23 06:48:56;;;;;;;46.00;23.95;;;4.30;99.90;;;;;;4925342;29;20052;-83
2022/03/23 06:51:46;;;;;;;41.65;24.23;;;4.50;99.90;;;;;;4921881;29;20083;-82
2022/03/23 06:54:36;;;;;;;37.20;23.52;;;4.70;1.00;;;;;;4911764;29;20248;-82
2022/03/23 06:57:24;;;;;;;37.20;23.10;;;5.00;1.00;;;;;;4915744;29;20051;-80
2022/03/23 07:00:15;;;;;;;43.85;23.90;;;5.10;99.90;;;;;;4918926;29;20059;-81
2022/03/23 07:03:05;;;;;;;41.88;22.55;;;5.30;99.90;;;;;;4930259;29;20051;-80
2022/03/23 07:05:55;;;;;;;44.22;23.25;;;5.50;99.90;;;;;;4913437;29;20054;-82
2022/03/23 07:11:50;;;;;;;41.00;22.83;;;6.40;99.90;;;;;;4925331;29;20052;-85
2022/03/23 07:14:41;;;;;;;40.63;22.70;;;7.20;6.30;;;;;;4907348;29;20138;-85
2022/03/23 07:17:36;;;;;;;34.90;22.15;;;7.50;1.00;;;;;;4900309;29;20060;-85
2022/03/23 07:20:24;;;;;;;38.63;22.20;;;7.60;1.00;;;;;;4919716;29;20040;-83
2022/03/23 07:23:11;;;;;;;34.35;22.95;;;7.70;1.00;;;;;;4909200;29;20134;-82
2022/03/23 07:25:59;;;;;;;36.65;22.88;;;7.80;1.00;;;;;;4904098;29;20063;-81
2022/03/23 07:28:47;;;;;;;33.30;22.55;;;8.00;1.00;;;;;;4905681;29;20171;-82
2022/03/23 07:31:37;;;;;;;39.28;22.90;;;8.10;99.90;;;;;;4924762;28;20048;-82
2022/03/23 07:34:26;;;;;;;36.92;23.35;;;8.10;99.90;;;;;;4912089;29;20056;-82
2022/03/23 07:37:35;;;;;;;39.42;22.55;;;8.20;99.90;;;;;;5140188;23;20139;-83
2022/03/23 07:40:55;;;;;;;31.05;21.02;;;8.60;99.90;;;;;;4921045;28;20048;-83
2022/03/23 07:43:44;;;;;;;37.45;22.38;;;8.70;99.90;;;;;;4924783;28;20044;-84
2022/03/23 07:46:32;;;;;;;43.15;22.60;;;9.00;99.90;;;;;;4903907;29;20072;-82
2022/03/23 07:49:20;;;;;;;38.85;22.30;;;9.10;99.90;;;;;;4907961;29;20059;-82
2022/03/23 07:52:14;;;;;;;31.33;21.05;;;9.50;99.90;;;;;;4903677;29;20056;-83
2022/03/23 07:55:10;;;;;;;33.00;21.20;;;10.30;99.90;;;;;;4893254;29;20044;-82
2022/03/23 07:58:45;;;;;;;36.90;21.52;;;10.80;99.90;;;;;;4918933;29;20060;-83
2022/03/23 08:04:15;;;;;;;33.08;21.92;;;11.40;99.90;;;;;;5539871;23;20489;-83
2022/03/23 08:07:07;;;;;;;34.10;21.08;;;11.70;1.00;;;;;;4883904;29;20045;-82
2022/03/23 08:09:55;;;;;;;32.30;21.25;;;11.80;99.90;;;;;;4888918;29;20045;-83
2022/03/23 08:12:47;;;;;;;41.65;21.45;;;11.80;1.00;;;;;;4895164;29;20140;-81
2022/03/23 08:15:39;;;;;;;33.60;21.10;;;11.70;1.00;;;;;;4886850;29;20060;-81
2022/03/23 08:18:27;;;;;;;30.98;21.35;;;12.00;99.90;;;;;;4896409;29;20048;-83
2022/03/23 08:21:17;;;;;;;29.85;20.00;;;12.70;15.60;;;;;;4877113;29;20052;-83
2022/03/23 08:24:06;;;;;;;27.45;20.25;;;13.50;9.10;;;;;;4904975;29;20036;-82
2022/03/23 08:26:54;;;;;;;26.50;19.08;;;14.50;52.60;;;;;;4901532;29;20063;-84
2022/03/23 08:29:41;;;;;;;26.17;19.45;;;14.70;58.50;;;;;;4890675;29;20041;-83
2022/03/23 08:35:37;;;;;;;29.27;20.92;;;15.60;55.50;;;;;;4878664;29;20045;-82
2022/03/23 08:39:12;;;;;;;33.63;19.58;;;16.30;52.90;;;;;;4872892;29;20053;-79
2022/03/23 08:42:18;;;;;;;27.67;20.20;;;16.30;51.70;;;;;;4864050;29;20141;-81
2022/03/23 08:45:17;;;;;;;27.90;19.42;;;16.50;50.70;;;;;;4890238;29;20053;-82
2022/03/23 08:48:22;;;;;;;28.33;18.70;;;16.20;50.20;;;;;;4874760;29;20045;-81
2022/03/23 08:51:15;;;;;;;26.30;19.02;;;16.50;48.90;;;;;;4875228;29;20458;-81
2022/03/23 08:54:04;;;;;;;33.70;19.35;;;16.50;48.50;;;;;;4880739;29;20044;-81
2022/03/23 08:56:53;;;;;;;28.30;18.58;;;16.50;49.50;;;;;;4880330;29;20064;-80
2022/03/23 08:59:45;;;;;;;29.50;19.02;;;17.60;50.70;;;;;;4868836;29;20105;-82
2022/03/23 09:02:34;;;;;;;23.77;17.30;;;18.30;42.60;;;;;;4873422;29;20053;-82
2022/03/23 09:05:23;;;;;;;25.13;17.88;;;17.50;42.20;;;;;;4875556;29;20087;-82
2022/03/23 09:08:11;;;;;;;26.88;18.08;;;17.60;44.30;;;;;;4875771;29;20040;-83
2022/03/23 09:11:12;;;;;;;23.55;16.80;;;18.50;44.00;;;;;;4878682;29;20105;-84
2022/03/23 09:14:22;;;;;;;22.52;16.33;;;19.40;38.10;;;;;;4880924;29;20025;-87
2022/03/23 09:17:12;;;;;;;29.73;16.75;;;20.10;38.10;;;;;;4887244;29;20065;-82
2022/03/23 09:22:44;;;;;;;22.63;16.50;;;19.80;34.00;;;;;;5070206;23;20036;-83
2022/03/23 09:25:35;;;;;;;20.48;16.25;;;19.30;37.70;;;;;;4907729;29;20059;-85
2022/03/23 09:28:24;;;;;;;19.77;15.23;;;19.60;37.10;;;;;;4911054;29;20053;-84
2022/03/23 09:31:14;;;;;;;22.13;15.52;;;20.40;37.30;;;;;;4913987;28;20096;-83
2022/03/23 09:39:48;;;;;;;18.35;12.75;;;22.20;30.60;;;;;;4923196;28;20462;-83
2022/03/23 09:42:38;;;;;;;19.10;12.27;;;23.40;29.60;;;;;;4919148;29;20051;-84
2022/03/23 09:48:31;;;;;;;13.73;11.65;;;23.10;27.10;;;;;;4915262;29;20063;-82
2022/03/23 09:51:22;;;;;;;15.63;10.82;;;22.70;26.60;;;;;;4916749;29;20127;-83
2022/03/23 09:54:15;;;;;;;15.65;11.95;;;21.80;26.50;;;;;;4908781;29;20394;-81
2022/03/23 09:57:06;;;;;;;18.33;12.07;;;21.80;29.40;;;;;;4902543;29;20063;-83
2022/03/23 09:59:55;;;;;;;19.70;12.20;;;22.10;29.10;;;;;;4915909;29;20048;-82
2022/03/23 10:03:09;;;;;;;16.15;11.13;;;23.00;28.30;;;;;;4916913;28;20115;-84
2022/03/23 10:06:22;;;;;;;13.73;10.38;;;22.50;29.00;;;;;;4916214;29;20048;-84
2022/03/23 10:09:27;;;;;;;16.75;10.70;;;23.30;29.60;;;;;;4913419;29;20064;-84
2022/03/23 10:12:52;;;;;;;16.67;11.00;;;23.80;24.90;;;;;;4898300;29;20143;-84
2022/03/23 10:16:11;;;;;;;11.77;9.55;;;23.50;27.50;;;;;;4919225;29;20063;-83
2022/03/23 10:19:02;;;;;;;12.43;10.38;;;23.40;27.20;;;;;;4912864;29;20044;-83
2022/03/23 10:21:53;;;;;;;10.68;9.00;;;23.80;25.30;;;;;;4919089;29;20048;-83
2022/03/23 10:24:49;;;;;;;11.48;7.57;;;23.70;24.40;;;;;;4903591;29;20071;-83
2022/03/23 10:27:38;;;;;;;11.15;7.65;;;23.60;24.90;;;;;;4904157;29;20052;-86
2022/03/23 10:30:37;;;;;;;12.73;7.95;;;23.60;23.80;;;;;;4897963;29;20064;-86
2022/03/23 10:33:25;;;;;;;8.32;7.05;;;23.30;23.70;;;;;;4907182;29;20064;-85
2022/03/23 10:36:17;;;;;;;10.13;7.75;;;22.70;24.10;;;;;;4911453;29;20067;-84
2022/03/23 10:39:11;;;;;;;9.43;7.90;;;23.10;26.00;;;;;;4896305;29;20077;-84
2022/03/23 10:42:15;;;;;;;9.60;7.15;;;23.70;24.40;;;;;;4905847;29;20080;-86
2022/03/23 10:45:19;;;;;;;12.18;7.38;;;23.10;22.90;;;;;;4918979;29;20048;-83
2022/03/23 10:48:22;;;;;;;10.60;7.22;;;22.80;25.10;;;;;;4901631;29;20067;-83
2022/03/23 10:51:10;;;;;;;10.25;7.35;;;23.50;22.10;;;;;;4912557;29;20612;-82
2022/03/23 10:53:58;;;;;;;11.48;7.57;;;23.40;24.20;;;;;;4923908;29;20037;-84
2022/03/23 10:56:48;;;;;;;9.48;7.97;;;23.40;22.30;;;;;;4931395;29;20119;-83
2022/03/23 11:00:18;;;;;;;11.48;7.00;;;23.90;20.80;;;;;;4920344;29;20040;-84
2022/03/23 11:03:36;;;;;;;11.10;7.40;;;24.20;22.70;;;;;;4919978;29;20492;-84
2022/03/23 11:06:29;;;;;;;13.30;7.15;;;24.20;23.60;;;;;;4922620;29;20083;-83
2022/03/23 11:16:09;;;;;;;14.07;8.18;;;25.70;22.00;;;;;;4912877;29;20040;-84
2022/03/23 11:19:06;;;;;;;11.70;8.13;;;25.20;22.40;;;;;;4907285;29;20132;-88
2022/03/23 11:22:05;;;;;;;13.52;7.75;;;25.00;22.40;;;;;;4914418;28;20204;-85
2022/03/23 11:25:03;;;;;;;10.95;8.10;;;24.80;22.20;;;;;;4908035;29;20049;-85
2022/03/23 11:27:50;;;;;;;15.43;8.07;;;24.30;22.10;;;;;;4901845;29;20361;-85
2022/03/23 11:30:38;;;;;;;11.93;7.68;;;25.00;23.40;;;;;;4917057;29;20066;-85
2022/03/23 11:33:26;;;;;;;9.68;8.43;;;25.70;19.20;;;;;;4916950;29;20054;-86
2022/03/23 11:36:19;;;;;;;14.75;9.02;;;24.70;20.50;;;;;;4918193;29;20048;-87
2022/03/23 11:39:10;;;;;;;11.60;8.77;;;24.80;21.20;;;;;;4911598;29;20047;-88
2022/03/23 11:42:02;;;;;;;12.32;8.85;;;25.50;20.20;;;;;;4913604;29;20048;-84
2022/03/23 11:44:51;;;;;;;14.50;9.95;;;25.10;22.30;;;;;;4904097;29;20052;-87
2022/03/23 11:48:13;;;;;;;16.20;10.02;;;24.60;22.90;;;;;;4916349;29;20052;-87
2022/03/23 11:51:42;;;;;;;15.57;10.05;;;24.80;23.10;;;;;;4906808;29;20104;-85
2022/03/23 11:55:37;;;;;;;18.67;9.02;;;25.00;20.90;;;;;;4902275;29;20104;-86
2022/03/23 11:57:59;;;;;;;11.20;9.93;;;26.50;20.30;;;;;;4917083;29;20048;-84
2022/03/23 12:00:57;;;;;;;13.13;9.52;;;26.90;22.60;;;;;;4920300;29;20062;-87
2022/03/23 12:03:51;;;;;;;13.15;9.80;;;26.50;22.70;;;;;;4905431;29;20057;-86
2022/03/23 12:06:42;;;;;;;14.93;9.30;;;27.30;21.20;;;;;;4919725;29;20043;-86
2022/03/23 12:09:36;;;;;;;12.10;9.43;;;26.90;21.20;;;;;;4916273;29;20055;-86
2022/03/23 12:12:28;;;;;;;14.07;8.65;;;27.00;22.00;;;;;;4909652;29;20126;-84
2022/03/23 12:15:26;;;;;;;13.27;11.05;;;27.20;21.60;;;;;;4914910;29;20044;-87
2022/03/23 12:18:16;;;;;;;16.30;9.93;;;26.50;20.80;;;;;;4899244;29;20055;-81
2022/03/23 12:21:10;;;;;;;12.85;9.65;;;26.50;21.90;;;;;;4896842;29;20075;-82
2022/03/23 12:24:13;;;;;;;19.20;10.77;;;26.60;21.10;;;;;;4915175;29;20058;-83
2022/03/23 12:27:09;;;;;;;15.43;9.75;;;26.00;21.50;;;;;;4902569;29;20063;-82
2022/03/23 12:30:10;;;;;;;11.02;8.85;;;26.10;22.20;;;;;;4912448;29;20445;-82
2022/03/23 12:33:00;;;;;;;16.00;9.75;;;26.00;22.10;;;;;;4912222;29;20044;-84
2022/03/23 12:35:48;;;;;;;14.95;9.43;;;25.60;22.40;;;;;;4899453;29;20044;-84
2022/03/23 12:38:36;;;;;;;12.93;8.70;;;26.10;19.30;;;;;;4914675;29;20055;-84
2022/03/23 12:41:39;;;;;;;11.52;8.25;;;26.20;19.90;;;;;;4903047;29;20382;-84
2022/03/23 12:44:32;;;;;;;10.75;9.30;;;26.10;20.90;;;;;;4915978;29;20056;-84
2022/03/23 12:47:22;;;;;;;12.95;8.98;;;25.70;21.10;;;;;;4905794;29;20053;-83
2022/03/23 12:59:39;;;;;;;12.20;8.85;;;25.50;21.50;;;;;;4912892;29;20610;-82
2022/03/23 13:02:31;;;;;;;14.25;7.95;;;25.70;19.90;;;;;;4918890;29;20044;-84
2022/03/23 13:50:49;;;;;;;;;;;;;;;;;;;;;
2022/03/23 14:23:55;;;;;;;8.57;7.13;;;26.20;18.80;;;;;;4758614;29;20043;-90
2022/03/23 14:43:31;;;;;;;11.57;8.80;;;26.20;19.00;;;;;;4773011;29;20491;-90
2022/03/23 14:46:53;;;;;;;10.88;8.20;;;26.10;19.50;;;;;;4802653;29;20063;-88
2022/03/23 14:50:17;;;;;;;;;;;;;;;;;;;;;
2022/03/23 14:53:31;;;;;;;11.60;9.23;;;26.00;19.70;;;;;;4862063;29;20061;-89
2022/03/23 14:56:20;;;;;;;14.73;9.75;;;26.30;18.80;;;;;;4849024;29;20166;-90
2022/03/23 14:59:15;;;;;;;14.38;9.32;;;25.60;20.50;;;;;;4848034;29;20057;-91
2022/03/23 15:02:03;;;;;;;13.32;8.98;;;24.80;20.80;;;;;;4852448;29;20194;-89
2022/03/23 15:04:54;;;;;;;11.60;9.20;;;24.60;20.80;;;;;;4848032;29;20038;-90
2022/03/23 15:13:57;;;;;;;11.57;9.18;;;25.00;20.60;;;;;;4899981;29;20052;-88
2022/03/23 15:16:48;;;;;;;13.38;9.10;;;25.10;21.30;;;;;;4897498;29;20155;-89
2022/03/23 15:19:37;;;;;;;12.15;8.73;;;24.50;20.00;;;;;;4882250;29;20375;-89
2022/03/23 15:22:25;;;;;;;11.55;9.63;;;24.90;20.70;;;;;;4902408;29;20131;-87
2022/03/23 15:25:16;;;;;;;15.82;10.00;;;25.00;20.00;;;;;;4900404;29;20048;-87
2022/03/23 15:28:04;;;;;;;11.52;8.90;;;24.20;21.00;;;;;;4888639;29;20460;-87
2022/03/23 15:30:57;;;;;;;11.63;8.65;;;24.20;21.10;;;;;;4902578;29;20056;-90
2022/03/23 15:33:53;;;;;;;16.40;9.18;;;23.90;21.60;;;;;;4906846;29;20064;-88
2022/03/23 15:36:41;;;;;;;15.30;9.20;;;24.10;20.40;;;;;;4904645;29;20048;-88
2022/03/23 15:39:31;;;;;;;12.75;9.77;;;23.90;21.20;;;;;;4890367;29;20073;-88
2022/03/23 15:45:28;;;;;;;11.75;9.35;;;23.80;21.80;;;;;;4893039;29;20045;-89
2022/03/23 15:48:26;;;;;;;14.63;9.25;;;23.40;22.50;;;;;;4901842;29;20232;-90
2022/03/23 15:51:20;;;;;;;15.35;9.85;;;23.50;22.10;;;;;;4903745;29;20181;-90
2022/03/23 15:54:11;;;;;;;14.48;10.13;;;23.10;22.40;;;;;;4884631;29;20443;-89
2022/03/23 15:56:59;;;;;;;16.63;10.40;;;23.00;23.40;;;;;;4887933;29;20450;-90
2022/03/23 15:59:51;;;;;;;13.82;9.88;;;22.60;22.80;;;;;;4886110;29;20044;-90
2022/03/23 16:02:43;;;;;;;;;;;22.40;23.90;;;;;;4879897;29;20064;-91
2022/03/23 16:05:31;;;;;;;16.17;10.55;;;22.30;23.00;;;;;;4878895;29;19923;-91
2022/03/23 16:08:19;;;;;;;18.17;10.13;;;22.10;23.70;;;;;;4884725;29;20044;-90
2022/03/23 16:11:17;;;;;;;14.48;10.38;;;21.60;24.20;;;;;;4907027;29;20056;-87
2022/03/23 16:14:05;;;;;;;16.30;10.27;;;21.10;24.60;;;;;;4898633;29;20075;-87
2022/03/23 16:16:53;;;;;;;17.45;10.38;;;20.80;25.00;;;;;;4889782;29;20040;-89
2022/03/23 16:19:44;;;;;;;14.35;9.60;;;21.00;25.20;;;;;;4891374;29;20096;-89
2022/03/23 16:22:35;;;;;;;12.38;9.00;;;20.90;25.10;;;;;;4892278;29;20048;-90
2022/03/23 16:25:29;;;;;;;16.38;10.27;;;20.60;25.20;;;;;;4906423;29;20052;-91
2022/03/23 16:28:17;;;;;;;15.25;9.93;;;20.10;25.70;;;;;;4876523;29;20080;-92
2022/03/23 16:31:05;;;;;;;20.00;10.63;;;19.70;26.20;;;;;;4892094;29;20441;-91
2022/03/23 16:33:56;;;;;;;15.88;10.07;;;19.20;26.40;;;;;;4902550;29;20164;-90
2022/03/23 16:36:44;;;;;;;13.97;9.83;;;18.50;27.40;;;;;;4891209;29;20332;-92
2022/03/23 16:39:33;;;;;;;17.88;10.07;;;17.70;28.40;;;;;;4893058;29;20049;-90
2022/03/23 16:42:23;;;;;;;13.98;10.20;;;17.20;28.40;;;;;;4896800;29;20044;-92
2022/03/23 16:45:13;;;;;;;18.38;10.52;;;16.70;29.70;;;;;;4888232;29;20128;-90
2022/03/23 16:48:01;;;;;;;16.63;10.32;;;16.30;30.60;;;;;;4896237;29;20057;-91
2022/03/23 16:50:49;;;;;;;14.00;10.20;;;16.00;30.90;;;;;;4903566;29;20347;-90
2022/03/23 16:53:37;;;;;;;16.67;10.32;;;15.80;30.60;;;;;;4898239;29;20188;-90
2022/03/23 16:56:29;;;;;;;15.43;9.60;;;15.50;31.90;;;;;;4907667;29;20060;-92
2022/03/23 16:59:20;;;;;;;17.48;10.30;;;15.30;32.50;;;;;;4894738;29;20071;-90
2022/03/23 17:02:10;;;;;;;16.35;9.65;;;15.00;33.00;;;;;;4881126;29;20048;-91
2022/03/23 17:14:37;;;;;;;;;;;;;;;;;;;;;
2022/03/23 17:17:30;;;;;;;14.93;9.82;;;14.30;33.20;;;;;;4900545;29;20060;-90
2022/03/23 17:20:18;;;;;;;15.13;10.10;;;14.10;32.70;;;;;;4902452;29;20131;-90
2022/03/23 17:23:08;;;;;;;14.25;9.60;;;13.90;33.10;;;;;;4887146;29;20056;-90
2022/03/23 17:26:09;;;;;;;17.02;9.55;;;13.60;34.80;;;;;;4879164;29;20153;-90
2022/03/23 17:29:10;;;;;;;;;;;;;;;;;;;;;
2022/03/23 17:32:04;;;;;;;19.00;9.75;;;13.30;32.80;;;;;;4898011;29;20337;-91
2022/03/23 17:34:59;;;;;;;14.82;9.75;;;13.20;34.30;;;;;;4895524;29;20137;-90
2022/03/23 17:38:04;;;;;;;16.30;8.95;;;13.10;34.70;;;;;;4892649;29;20397;-91
2022/03/23 17:41:25;;;;;;;;;;;;;;;;;;;;;
2022/03/23 17:44:33;;;;;;;16.85;10.18;;;12.80;33.90;;;;;;4840884;29;20086;-91
2022/03/23 17:47:46;;;;;;;;;;;;;;;;;;;;;
2022/03/23 17:50:50;;;;;;;;;;;;;;;;;;;;;
2022/03/23 17:53:49;;;;;;;17.02;9.45;;;12.40;34.70;;;;;;4848080;29;20064;-90
2022/03/23 17:57:09;;;;;;;;;;;;;;;;;;;;;
2022/03/23 18:00:13;;;;;;;15.20;9.70;;;11.90;37.40;;;;;;4900763;29;20152;-87
2022/03/23 18:03:37;;;;;;;;;;;;;;;;;;;;;